Terminal Aerodrome Forecast
Issued by NWS

Home | Current Version | Previous Version | Text Only | Print | Product List | Glossary On
Versions: 1 2 3 4 5 6 7 8 9 10 11 12 13 14 15 16 17 18 19 20
245
FTUS41 KPBZ 282328
TAFFKL
TAF
KFKL 282328Z 2900/2924 VRB03KT P6SM BKN100
     FM290300 VRB05KT 3SM -SHRA OVC050
     FM290500 14005KT P6SM -SHRA OVC050
     FM290700 18005KT 5SM -SHRA VCTS OVC035CB
     FM291000 21005KT 5SM -SHRA OVC020
     FM291300 28005KT 5SM -SHRA OVC015
     FM292100 30005KT P6SM BKN025
      AMD LTD TO CLD VIS AND WIND=

USA.gov is the U.S. government's official web portal to all federal, state and local government web resources and services.